sensor_id;sensor_type;location;lat;lon;timestamp;pressure;altitude;pressure_sealevel;temperature;humidity
36502;BME280;25393;46.108;3.390;2023-04-01T00:00:17;97509.75;;;8.69;84.59
36502;BME280;25393;46.108;3.390;2023-04-01T00:02:47;97508.22;;;8.74;84.01
36502;BME280;25393;46.108;3.390;2023-04-01T00:05:17;97504.41;;;8.77;84.47
36502;BME280;25393;46.108;3.390;2023-04-01T00:07:47;97497.66;;;8.82;84.16
36502;BME280;25393;46.108;3.390;2023-04-01T00:10:16;97498.78;;;8.80;84.86
36502;BME280;25393;46.108;3.390;2023-04-01T00:12:47;97502.94;;;8.82;85.53
36502;BME280;25393;46.108;3.390;2023-04-01T00:15:15;97493.47;;;8.88;85.82
36502;BME280;25393;46.108;3.390;2023-04-01T00:17:42;97489.44;;;9.08;84.39
36502;BME280;25393;46.108;3.390;2023-04-01T00:20:09;97497.69;;;9.05;84.65
36502;BME280;25393;46.108;3.390;2023-04-01T00:22:36;97496.75;;;8.98;84.83
36502;BME280;25393;46.108;3.390;2023-04-01T00:25:03;97482.91;;;8.88;85.11
36502;BME280;25393;46.108;3.390;2023-04-01T00:27:30;97474.16;;;8.87;85.02
36502;BME280;25393;46.108;3.390;2023-04-01T00:29:57;97497.75;;;8.97;84.62
36502;BME280;25393;46.108;3.390;2023-04-01T00:32:23;97492.00;;;8.93;85.79
36502;BME280;25393;46.108;3.390;2023-04-01T00:34:51;97477.47;;;8.89;85.17
36502;BME280;25393;46.108;3.390;2023-04-01T00:37:18;97475.59;;;8.98;84.69
36502;BME280;25393;46.108;3.390;2023-04-01T00:39:48;97484.50;;;9.05;85.28
36502;BME280;25393;46.108;3.390;2023-04-01T00:42:15;97492.34;;;9.21;84.59
36502;BME280;25393;46.108;3.390;2023-04-01T00:44:42;97495.03;;;9.13;85.96
36502;BME280;25393;46.108;3.390;2023-04-01T00:47:09;97496.22;;;9.02;85.70
36502;BME280;25393;46.108;3.390;2023-04-01T00:49:39;97502.63;;;9.08;84.65
36502;BME280;25393;46.108;3.390;2023-04-01T00:52:08;97500.81;;;9.17;85.08
36502;BME280;25393;46.108;3.390;2023-04-01T00:54:37;97484.94;;;9.17;85.07
36502;BME280;25393;46.108;3.390;2023-04-01T00:57:21;97486.47;;;9.11;84.28
36502;BME280;25393;46.108;3.390;2023-04-01T00:59:52;97485.28;;;9.14;85.22
36502;BME280;25393;46.108;3.390;2023-04-01T01:02:21;97479.16;;;9.13;84.88
36502;BME280;25393;46.108;3.390;2023-04-01T01:04:48;97480.16;;;9.12;85.41
36502;BME280;25393;46.108;3.390;2023-04-01T01:10:29;97483.28;;;9.16;85.42
36502;BME280;25393;46.108;3.390;2023-04-01T01:13:33;97487.25;;;9.12;84.51
36502;BME280;25393;46.108;3.390;2023-04-01T01:16:21;97485.09;;;9.15;84.69
36502;BME280;25393;46.108;3.390;2023-04-01T01:19:26;97478.69;;;9.10;85.27
36502;BME280;25393;46.108;3.390;2023-04-01T01:22:31;97484.09;;;9.16;84.53
36502;BME280;25393;46.108;3.390;2023-04-01T01:28:01;97471.38;;;9.20;84.96
36502;BME280;25393;46.108;3.390;2023-04-01T01:30:42;97469.06;;;9.17;85.12
36502;BME280;25393;46.108;3.390;2023-04-01T01:35:46;97467.69;;;9.29;85.38
36502;BME280;25393;46.108;3.390;2023-04-01T01:38:21;97444.75;;;9.21;85.28
36502;BME280;25393;46.108;3.390;2023-04-01T01:40:52;97452.50;;;9.23;84.96
36502;BME280;25393;46.108;3.390;2023-04-01T01:43:24;97458.75;;;9.30;84.79
36502;BME280;25393;46.108;3.390;2023-04-01T01:45:54;97459.44;;;9.24;85.42
36502;BME280;25393;46.108;3.390;2023-04-01T01:48:23;97474.50;;;9.15;86.16
36502;BME280;25393;46.108;3.390;2023-04-01T01:50:51;97453.78;;;9.04;86.16
36502;BME280;25393;46.108;3.390;2023-04-01T01:53:20;97453.56;;;9.14;86.17
36502;BME280;25393;46.108;3.390;2023-04-01T01:55:54;97460.81;;;9.12;86.82
36502;BME280;25393;46.108;3.390;2023-04-01T01:58:32;97459.84;;;9.13;86.90
36502;BME280;25393;46.108;3.390;2023-04-01T02:01:11;97469.88;;;9.25;85.91
36502;BME280;25393;46.108;3.390;2023-04-01T02:03:40;97446.25;;;9.16;85.70
36502;BME280;25393;46.108;3.390;2023-04-01T02:06:10;97453.38;;;9.15;85.78
36502;BME280;25393;46.108;3.390;2023-04-01T02:08:42;97471.38;;;9.20;85.68
36502;BME280;25393;46.108;3.390;2023-04-01T02:11:12;97467.47;;;9.08;85.65
36502;BME280;25393;46.108;3.390;2023-04-01T02:13:43;97479.66;;;9.17;85.77
36502;BME280;25393;46.108;3.390;2023-04-01T02:16:20;97466.47;;;9.09;86.03
36502;BME280;25393;46.108;3.390;2023-04-01T02:18:54;97477.03;;;9.09;87.00
36502;BME280;25393;46.108;3.390;2023-04-01T02:21:24;97473.09;;;9.04;86.87
36502;BME280;25393;46.108;3.390;2023-04-01T02:23:56;97477.22;;;9.07;87.29
36502;BME280;25393;46.108;3.390;2023-04-01T02:26:25;97467.28;;;9.09;87.23
36502;BME280;25393;46.108;3.390;2023-04-01T02:28:55;97488.78;;;9.06;87.58
36502;BME280;25393;46.108;3.390;2023-04-01T02:31:23;97486.31;;;9.04;89.33
36502;BME280;25393;46.108;3.390;2023-04-01T02:33:52;97483.66;;;9.04;90.64
36502;BME280;25393;46.108;3.390;2023-04-01T02:36:25;97471.84;;;8.92;92.69
36502;BME280;25393;46.108;3.390;2023-04-01T02:38:54;97475.97;;;8.87;93.67
36502;BME280;25393;46.108;3.390;2023-04-01T02:41:25;97475.97;;;8.87;94.02
36502;BME280;25393;46.108;3.390;2023-04-01T02:43:53;97474.16;;;8.87;94.60
36502;BME280;25393;46.108;3.390;2023-04-01T02:46:21;97472.19;;;8.89;95.43
36502;BME280;25393;46.108;3.390;2023-04-01T02:48:50;97473.13;;;8.96;95.11
36502;BME280;25393;46.108;3.390;2023-04-01T02:51:16;97466.56;;;8.92;95.75
36502;BME280;25393;46.108;3.390;2023-04-01T02:53:43;97473.78;;;8.98;96.46
36502;BME280;25393;46.108;3.390;2023-04-01T02:56:10;97477.88;;;9.09;95.79
36502;BME280;25393;46.108;3.390;2023-04-01T02:58:37;97481.97;;;9.12;96.44
36502;BME280;25393;46.108;3.390;2023-04-01T03:01:03;97463.31;;;9.13;95.73
36502;BME280;25393;46.108;3.390;2023-04-01T03:03:30;97481.72;;;9.29;94.86
36502;BME280;25393;46.108;3.390;2023-04-01T03:05:56;97485.03;;;9.31;95.23
36502;BME280;25393;46.108;3.390;2023-04-01T03:08:25;97472.81;;;9.22;96.23
36502;BME280;25393;46.108;3.390;2023-04-01T03:10:51;97476.69;;;9.42;95.20
36502;BME280;25393;46.108;3.390;2023-04-01T03:13:18;97484.00;;;9.32;95.45
36502;BME280;25393;46.108;3.390;2023-04-01T03:15:44;97484.19;;;9.31;95.79
36502;BME280;25393;46.108;3.390;2023-04-01T03:18:11;97480.28;;;9.19;97.28
36502;BME280;25393;46.108;3.390;2023-04-01T03:20:37;97480.91;;;9.29;96.61
36502;BME280;25393;46.108;3.390;2023-04-01T03:23:04;97473.78;;;9.29;96.47
36502;BME280;25393;46.108;3.390;2023-04-01T03:25:31;97482.19;;;9.33;96.22
36502;BME280;25393;46.108;3.390;2023-04-01T03:27:58;97471.41;;;9.12;97.49
36502;BME280;25393;46.108;3.390;2023-04-01T03:30:28;97466.50;;;9.31;96.74
36502;BME280;25393;46.108;3.390;2023-04-01T03:32:57;97468.22;;;9.24;97.09
36502;BME280;25393;46.108;3.390;2023-04-01T03:35:27;97484.28;;;9.45;95.98
36502;BME280;25393;46.108;3.390;2023-04-01T03:37:53;97489.22;;;9.48;95.74
36502;BME280;25393;46.108;3.390;2023-04-01T03:40:23;97484.91;;;9.47;95.92
36502;BME280;25393;46.108;3.390;2023-04-01T03:42:54;97490.56;;;9.44;96.14
36502;BME280;25393;46.108;3.390;2023-04-01T03:45:23;97486.84;;;9.53;95.48
36502;BME280;25393;46.108;3.390;2023-04-01T03:47:49;97496.56;;;9.38;94.47
36502;BME280;25393;46.108;3.390;2023-04-01T03:50:16;97497.94;;;9.26;95.89
36502;BME280;25393;46.108;3.390;2023-04-01T03:52:43;97494.44;;;9.34;95.22
36502;BME280;25393;46.108;3.390;2023-04-01T03:55:09;97493.00;;;9.23;95.71
36502;BME280;25393;46.108;3.390;2023-04-01T03:57:35;97497.16;;;9.18;95.55
36502;BME280;25393;46.108;3.390;2023-04-01T04:00:02;97490.06;;;9.18;95.32
36502;BME280;25393;46.108;3.390;2023-04-01T04:02:29;97491.06;;;9.17;95.44
36502;BME280;25393;46.108;3.390;2023-04-01T04:04:59;97499.75;;;9.26;94.94
36502;BME280;25393;46.108;3.390;2023-04-01T04:07:25;97494.03;;;9.14;95.51
36502;BME280;25393;46.108;3.390;2023-04-01T04:09:55;97486.63;;;9.10;95.43
36502;BME280;25393;46.108;3.390;2023-04-01T04:12:24;97486.28;;;9.13;95.31
36502;BME280;25393;46.108;3.390;2023-04-01T04:14:50;97488.66;;;8.99;96.40
36502;BME280;25393;46.108;3.390;2023-04-01T04:17:17;97470.19;;;8.83;96.58
36502;BME280;25393;46.108;3.390;2023-04-01T04:19:43;97485.03;;;9.00;95.79
36502;BME280;25393;46.108;3.390;2023-04-01T04:22:10;97496.09;;;8.96;97.60
36502;BME280;25393;46.108;3.390;2023-04-01T04:24:36;97494.31;;;8.88;97.80
36502;BME280;25393;46.108;3.390;2023-04-01T04:27:03;97483.75;;;8.80;98.32
36502;BME280;25393;46.108;3.390;2023-04-01T04:29:30;97481.78;;;8.82;97.88
36502;BME280;25393;46.108;3.390;2023-04-01T04:31:56;97488.41;;;8.78;97.55
36502;BME280;25393;46.108;3.390;2023-04-01T04:34:25;97478.81;;;8.77;97.55
36502;BME280;25393;46.108;3.390;2023-04-01T04:36:52;97477.00;;;8.78;98.11
36502;BME280;25393;46.108;3.390;2023-04-01T04:39:19;97482.94;;;8.80;98.55
36502;BME280;25393;46.108;3.390;2023-04-01T04:41:45;97485.56;;;8.80;98.29
36502;BME280;25393;46.108;3.390;2023-04-01T04:44:12;97481.31;;;8.79;99.05
36502;BME280;25393;46.108;3.390;2023-04-01T04:46:38;97472.22;;;8.73;99.31
36502;BME280;25393;46.108;3.390;2023-04-01T04:49:06;97484.25;;;8.84;100.00
36502;BME280;25393;46.108;3.390;2023-04-01T04:51:33;97486.88;;;8.92;100.00
36502;BME280;25393;46.108;3.390;2023-04-01T04:54:03;97473.88;;;8.82;98.50
36502;BME280;25393;46.108;3.390;2023-04-01T04:56:30;97477.47;;;8.89;97.88
36502;BME280;25393;46.108;3.390;2023-04-01T04:59:00;97473.00;;;8.90;98.25
36502;BME280;25393;46.108;3.390;2023-04-01T05:01:27;97482.28;;;8.86;99.10
36502;BME280;25393;46.108;3.390;2023-04-01T05:03:55;97475.34;;;8.85;100.00
36502;BME280;25393;46.108;3.390;2023-04-01T05:06:21;97483.75;;;8.88;100.00
36502;BME280;25393;46.108;3.390;2023-04-01T05:08:49;97479.06;;;8.98;99.30
36502;BME280;25393;46.108;3.390;2023-04-01T05:11:17;97481.59;;;8.92;100.00
36502;BME280;25393;46.108;3.390;2023-04-01T05:13:45;97478.97;;;8.84;100.00
36502;BME280;25393;46.108;3.390;2023-04-01T05:16:14;97478.47;;;8.80;100.00
36502;BME280;25393;46.108;3.390;2023-04-01T05:18:41;97489.19;;;8.87;100.00
36502;BME280;25393;46.108;3.390;2023-04-01T05:21:10;97484.59;;;8.81;100.00
36502;BME280;25393;46.108;3.390;2023-04-01T05:23:36;97490.69;;;8.89;100.00
36502;BME280;25393;46.108;3.390;2023-04-01T05:26:08;97490.69;;;8.81;100.00
36502;BME280;25393;46.108;3.390;2023-04-01T05:28:36;97483.47;;;8.75;100.00
36502;BME280;25393;46.108;3.390;2023-04-01T05:31:03;97495.28;;;8.87;100.00
36502;BME280;25393;46.108;3.390;2023-04-01T05:33:30;97485.28;;;8.75;100.00
36502;BME280;25393;46.108;3.390;2023-04-01T05:38:34;97481.81;;;8.74;100.00
36502;BME280;25393;46.108;3.390;2023-04-01T05:41:02;97487.25;;;8.73;100.00
36502;BME280;25393;46.108;3.390;2023-04-01T05:43:32;97471.13;;;8.60;100.00
36502;BME280;25393;46.108;3.390;2023-04-01T05:46:01;97484.31;;;8.60;100.00
36502;BME280;25393;46.108;3.390;2023-04-01T05:48:32;97492.25;;;8.60;100.00
36502;BME280;25393;46.108;3.390;2023-04-01T05:51:02;97486.63;;;8.63;100.00
36502;BME280;25393;46.108;3.390;2023-04-01T05:53:33;97491.56;;;8.66;100.00
36502;BME280;25393;46.108;3.390;2023-04-01T05:56:03;97495.84;;;8.75;100.00
36502;BME280;25393;46.108;3.390;2023-04-01T05:58:30;97497.16;;;8.79;100.00
36502;BME280;25393;46.108;3.390;2023-04-01T06:01:04;97487.66;;;8.62;100.00
36502;BME280;25393;46.108;3.390;2023-04-01T06:03:37;97491.25;;;8.69;100.00
36502;BME280;25393;46.108;3.390;2023-04-01T06:06:08;97467.34;;;8.54;100.00
36502;BME280;25393;46.108;3.390;2023-04-01T06:08:37;97484.81;;;8.55;100.00
36502;BME280;25393;46.108;3.390;2023-04-01T06:30:33;97493.97;;;8.83;100.00
36502;BME280;25393;46.108;3.390;2023-04-01T06:41:33;97497.75;;;8.97;100.00
36502;BME280;25393;46.108;3.390;2023-04-01T06:47:22;97497.03;;;9.11;100.00
36502;BME280;25393;46.108;3.390;2023-04-01T06:52:42;97500.91;;;9.31;98.98
36502;BME280;25393;46.108;3.390;2023-04-01T06:55:42;97506.81;;;9.33;97.87
36502;BME280;25393;46.108;3.390;2023-04-01T06:58:34;97492.81;;;9.56;99.19
36502;BME280;25393;46.108;3.390;2023-04-01T07:01:04;97502.16;;;9.66;97.70
36502;BME280;25393;46.108;3.390;2023-04-01T07:03:36;97511.59;;;9.61;97.72
36502;BME280;25393;46.108;3.390;2023-04-01T07:06:27;97512.63;;;9.60;99.48
36502;BME280;25393;46.108;3.390;2023-04-01T07:09:02;97512.78;;;9.58;97.18
36502;BME280;25393;46.108;3.390;2023-04-01T07:11:34;97517.63;;;9.77;96.97
36502;BME280;25393;46.108;3.390;2023-04-01T07:14:06;97518.22;;;9.87;95.57
36502;BME280;25393;46.108;3.390;2023-04-01T07:16:46;97510.91;;;9.89;92.31
36502;BME280;25393;46.108;3.390;2023-04-01T07:22:23;97512.53;;;9.98;91.58
36502;BME280;25393;46.108;3.390;2023-04-01T07:25:16;97503.91;;;9.96;92.01
36502;BME280;25393;46.108;3.390;2023-04-01T07:27:45;97519.06;;;9.88;90.74
36502;BME280;25393;46.108;3.390;2023-04-01T07:30:16;97520.28;;;10.00;93.01
36502;BME280;25393;46.108;3.390;2023-04-01T07:33:11;97518.38;;;9.86;89.41
36502;BME280;25393;46.108;3.390;2023-04-01T07:36:05;97518.28;;;9.79;90.58
36502;BME280;25393;46.108;3.390;2023-04-01T07:45:11;97518.38;;;9.86;91.48
36502;BME280;25393;46.108;3.390;2023-04-01T07:50:41;97502.41;;;9.79;91.39
36502;BME280;25393;46.108;3.390;2023-04-01T07:56:06;97516.47;;;10.02;86.49
36502;BME280;25393;46.108;3.390;2023-04-01T08:02:25;97509.69;;;10.00;85.64
36502;BME280;25393;46.108;3.390;2023-04-01T08:04:53;97516.50;;;10.17;87.32
36502;BME280;25393;46.108;3.390;2023-04-01T08:07:26;97522.16;;;10.14;87.79
36502;BME280;25393;46.108;3.390;2023-04-01T08:10:09;97508.25;;;10.35;85.11
36502;BME280;25393;46.108;3.390;2023-04-01T08:18:21;97516.13;;;11.67;77.32
36502;BME280;25393;46.108;3.390;2023-04-01T08:21:01;97513.47;;;11.81;74.08
36502;BME280;25393;46.108;3.390;2023-04-01T08:23:47;97510.22;;;12.07;74.01
36502;BME280;25393;46.108;3.390;2023-04-01T08:26:28;97508.69;;;12.19;74.30
36502;BME280;25393;46.108;3.390;2023-04-01T08:29:09;97496.38;;;11.54;74.64
36502;BME280;25393;46.108;3.390;2023-04-01T08:32:15;97503.25;;;11.13;76.29
36502;BME280;25393;46.108;3.390;2023-04-01T08:34:47;97513.06;;;10.83;79.24
36502;BME280;25393;46.108;3.390;2023-04-01T08:37:23;97522.63;;;10.70;83.38
36502;BME280;25393;46.108;3.390;2023-04-01T08:39:55;97509.50;;;10.76;82.48
36502;BME280;25393;46.108;3.390;2023-04-01T08:42:41;97519.19;;;10.69;82.70
36502;BME280;25393;46.108;3.390;2023-04-01T08:45:40;97513.97;;;10.76;84.41
36502;BME280;25393;46.108;3.390;2023-04-01T08:56:34;97516.50;;;11.28;83.46
36502;BME280;25393;46.108;3.390;2023-04-01T08:59:30;97519.75;;;11.44;82.82
36502;BME280;25393;46.108;3.390;2023-04-01T09:05:18;97513.00;;;11.27;78.82
36502;BME280;25393;46.108;3.390;2023-04-01T09:24:42;97463.66;;;13.08;66.58
36502;BME280;25393;46.108;3.390;2023-04-01T09:32:49;97457.16;;;12.76;69.00
36502;BME280;25393;46.108;3.390;2023-04-01T09:35:38;97463.66;;;13.01;68.39
36502;BME280;25393;46.108;3.390;2023-04-01T09:38:29;97472.03;;;13.45;66.91
36502;BME280;25393;46.108;3.390;2023-04-01T09:41:22;97450.41;;;14.27;63.26
36502;BME280;25393;46.108;3.390;2023-04-01T09:44:05;97450.16;;;14.75;60.81
36502;BME280;25393;46.108;3.390;2023-04-01T09:58:35;97441.19;;;14.04;65.01
36502;BME280;25393;46.108;3.390;2023-04-01T10:26:44;97412.47;;;12.99;67.17
36502;BME280;25393;46.108;3.390;2023-04-01T11:06:29;97358.78;;;13.30;64.42
36502;BME280;25393;46.108;3.390;2023-04-01T11:12:29;97349.56;;;13.45;64.16
36502;BME280;25393;46.108;3.390;2023-04-01T11:23:40;97345.91;;;13.73;60.84
36502;BME280;25393;46.108;3.390;2023-04-01T11:28:56;97340.75;;;13.25;62.21
36502;BME280;25393;46.108;3.390;2023-04-01T11:31:44;97346.34;;;12.83;65.25
36502;BME280;25393;46.108;3.390;2023-04-01T11:37:00;97383.53;;;11.59;75.39
36502;BME280;25393;46.108;3.390;2023-04-01T11:47:45;97408.88;;;9.87;100.00
36502;BME280;25393;46.108;3.390;2023-04-01T11:52:59;97399.28;;;11.39;100.00
36502;BME280;25393;46.108;3.390;2023-04-01T11:56:11;97397.25;;;11.83;100.00
36502;BME280;25393;46.108;3.390;2023-04-01T12:09:46;97380.66;;;12.78;89.98
36502;BME280;25393;46.108;3.390;2023-04-01T12:15:24;97374.38;;;12.92;94.80
36502;BME280;25393;46.108;3.390;2023-04-01T12:20:57;97368.19;;;12.78;86.95
36502;BME280;25393;46.108;3.390;2023-04-01T12:23:35;97372.53;;;12.38;86.47
36502;BME280;25393;46.108;3.390;2023-04-01T12:26:55;97373.38;;;12.18;90.18
36502;BME280;25393;46.108;3.390;2023-04-01T12:30:05;97371.88;;;11.74;81.05
36502;BME280;25393;46.108;3.390;2023-04-01T12:41:21;97376.25;;;10.53;87.56
36502;BME280;25393;46.108;3.390;2023-04-01T12:44:15;97354.41;;;10.66;87.22
36502;BME280;25393;46.108;3.390;2023-04-01T12:49:34;97383.28;;;11.53;80.32
36502;BME280;25393;46.108;3.390;2023-04-01T12:52:11;97371.56;;;11.90;79.44
36502;BME280;25393;46.108;3.390;2023-04-01T13:08:49;97386.97;;;12.29;74.60
36502;BME280;25393;46.108;3.390;2023-04-01T13:17:07;97376.34;;;12.29;71.11
36502;BME280;25393;46.108;3.390;2023-04-01T13:19:58;97354.47;;;12.75;69.83
36502;BME280;25393;46.108;3.390;2023-04-01T13:27:49;97324.41;;;12.74;70.27
36502;BME280;25393;46.108;3.390;2023-04-01T13:35:39;97327.69;;;12.70;67.96
36502;BME280;25393;46.108;3.390;2023-04-01T13:41:22;97345.03;;;12.25;67.40
36502;BME280;25393;46.108;3.390;2023-04-01T13:43:58;97324.72;;;12.11;69.16
36502;BME280;25393;46.108;3.390;2023-04-01T13:57:52;97351.69;;;12.14;66.27
36502;BME280;25393;46.108;3.390;2023-04-01T14:03:30;97353.94;;;11.62;69.49
36502;BME280;25393;46.108;3.390;2023-04-01T14:08:46;97351.06;;;11.57;73.77
36502;BME280;25393;46.108;3.390;2023-04-01T14:11:32;97316.97;;;10.90;73.08
36502;BME280;25393;46.108;3.390;2023-04-01T14:14:36;97366.06;;;9.83;85.33
36502;BME280;25393;46.108;3.390;2023-04-01T14:28:54;97359.41;;;7.88;100.00
36502;BME280;25393;46.108;3.390;2023-04-01T14:42:46;97371.44;;;7.98;100.00
36502;BME280;25393;46.108;3.390;2023-04-01T14:48:32;97377.13;;;8.26;100.00
36502;BME280;25393;46.108;3.390;2023-04-01T14:51:28;97362.22;;;8.49;100.00
36502;BME280;25393;46.108;3.390;2023-04-01T14:54:18;97371.53;;;8.68;100.00
36502;BME280;25393;46.108;3.390;2023-04-01T14:57:11;97371.63;;;9.06;100.00
36502;BME280;25393;46.108;3.390;2023-04-01T14:59:41;97368.56;;;9.39;100.00
36502;BME280;25393;46.108;3.390;2023-04-01T15:13:20;97354.00;;;9.81;95.01
36502;BME280;25393;46.108;3.390;2023-04-01T15:19:14;97357.47;;;9.67;94.17
36502;BME280;25393;46.108;3.390;2023-04-01T15:22:00;97349.53;;;9.67;95.21
36502;BME280;25393;46.108;3.390;2023-04-01T15:38:31;97351.31;;;10.18;88.42
36502;BME280;25393;46.108;3.390;2023-04-01T15:46:24;97337.22;;;10.03;87.53
36502;BME280;25393;46.108;3.390;2023-04-01T15:49:08;97345.06;;;9.96;87.86
36502;BME280;25393;46.108;3.390;2023-04-01T15:52:21;97346.91;;;10.11;87.02
36502;BME280;25393;46.108;3.390;2023-04-01T16:02:31;97335.69;;;10.09;88.63
36502;BME280;25393;46.108;3.390;2023-04-01T16:05:31;97326.38;;;10.13;88.33
36502;BME280;25393;46.108;3.390;2023-04-01T16:08:14;97321.47;;;10.24;89.29
36502;BME280;25393;46.108;3.390;2023-04-01T16:10:55;97322.66;;;10.22;87.86
36502;BME280;25393;46.108;3.390;2023-04-01T16:13:46;97332.22;;;10.08;91.36
36502;BME280;25393;46.108;3.390;2023-04-01T16:16:25;97334.31;;;9.98;92.73
36502;BME280;25393;46.108;3.390;2023-04-01T16:21:59;97330.50;;;9.26;100.00
36502;BME280;25393;46.108;3.390;2023-04-01T16:24:48;97326.75;;;9.20;100.00
36502;BME280;25393;46.108;3.390;2023-04-01T16:27:25;97323.75;;;9.23;100.00
36502;BME280;25393;46.108;3.390;2023-04-01T16:32:49;97326.91;;;9.41;100.00
36502;BME280;25393;46.108;3.390;2023-04-01T16:37:54;97315.69;;;9.39;100.00
36502;BME280;25393;46.108;3.390;2023-04-01T16:45:40;97316.75;;;9.53;100.00
36502;BME280;25393;46.108;3.390;2023-04-01T16:48:15;97321.09;;;9.61;100.00
36502;BME280;25393;46.108;3.390;2023-04-01T16:50:49;97320.09;;;9.47;100.00
36502;BME280;25393;46.108;3.390;2023-04-01T16:53:44;97337.22;;;9.74;100.00
36502;BME280;25393;46.108;3.390;2023-04-01T16:56:16;97340.81;;;9.58;99.96
36502;BME280;25393;46.108;3.390;2023-04-01T17:01:27;97336.41;;;9.13;100.00
36502;BME280;25393;46.108;3.390;2023-04-01T17:04:06;97347.72;;;8.99;100.00
36502;BME280;25393;46.108;3.390;2023-04-01T17:17:55;97357.94;;;8.79;99.20
36502;BME280;25393;46.108;3.390;2023-04-01T17:23:01;97374.66;;;8.72;97.76
36502;BME280;25393;46.108;3.390;2023-04-01T17:50:18;97414.78;;;8.75;95.60
36502;BME280;25393;46.108;3.390;2023-04-01T17:55:43;97412.28;;;8.74;95.86
36502;BME280;25393;46.108;3.390;2023-04-01T17:58:21;97426.00;;;8.69;97.27
36502;BME280;25393;46.108;3.390;2023-04-01T18:08:59;97431.28;;;8.69;96.43
36502;BME280;25393;46.108;3.390;2023-04-01T18:17:06;97443.59;;;8.46;100.00
36502;BME280;25393;46.108;3.390;2023-04-01T18:20:06;97445.59;;;8.44;100.00
36502;BME280;25393;46.108;3.390;2023-04-01T18:22:58;97455.19;;;8.37;100.00
36502;BME280;25393;46.108;3.390;2023-04-01T18:28:32;97441.16;;;8.20;100.00
36502;BME280;25393;46.108;3.390;2023-04-01T18:31:24;97464.41;;;8.25;100.00
36502;BME280;25393;46.108;3.390;2023-04-01T18:33:56;97465.78;;;8.13;100.00
36502;BME280;25393;46.108;3.390;2023-04-01T18:39:22;97463.81;;;7.98;100.00
36502;BME280;25393;46.108;3.390;2023-04-01T18:44:51;97478.13;;;8.12;100.00
36502;BME280;25393;46.108;3.390;2023-04-01T18:50:14;97477.97;;;7.89;100.00
36502;BME280;25393;46.108;3.390;2023-04-01T18:52:45;97478.13;;;8.04;100.00
36502;BME280;25393;46.108;3.390;2023-04-01T19:01:05;97488.53;;;7.89;100.00
36502;BME280;25393;46.108;3.390;2023-04-01T19:03:57;97492.84;;;7.98;100.00
36502;BME280;25393;46.108;3.390;2023-04-01T19:06:41;97500.06;;;7.96;100.00
36502;BME280;25393;46.108;3.390;2023-04-01T19:09:18;97493.47;;;7.92;100.00
36502;BME280;25393;46.108;3.390;2023-04-01T19:36:19;97540.00;;;8.26;100.00
36502;BME280;25393;46.108;3.390;2023-04-01T19:48:05;97552.22;;;8.27;100.00
36502;BME280;25393;46.108;3.390;2023-04-01T19:50:55;97549.91;;;8.16;100.00
36502;BME280;25393;46.108;3.390;2023-04-01T19:53:35;97564.44;;;8.20;100.00
36502;BME280;25393;46.108;3.390;2023-04-01T19:56:23;97561.66;;;8.29;100.00
36502;BME280;25393;46.108;3.390;2023-04-01T19:59:23;97562.44;;;8.22;100.00
36502;BME280;25393;46.108;3.390;2023-04-01T20:04:57;97559.63;;;8.07;100.00
36502;BME280;25393;46.108;3.390;2023-04-01T20:07:41;97562.56;;;7.96;100.00
36502;BME280;25393;46.108;3.390;2023-04-01T20:10:52;97571.50;;;7.95;100.00
36502;BME280;25393;46.108;3.390;2023-04-01T20:16:09;97580.06;;;7.89;100.00
36502;BME280;25393;46.108;3.390;2023-04-01T20:18:56;97580.91;;;7.97;100.00
36502;BME280;25393;46.108;3.390;2023-04-01T20:21:31;97577.09;;;7.92;100.00
36502;BME280;25393;46.108;3.390;2023-04-01T20:26:36;97577.09;;;7.84;100.00
36502;BME280;25393;46.108;3.390;2023-04-01T20:29:18;97572.47;;;7.86;100.00
36502;BME280;25393;46.108;3.390;2023-04-01T20:32:18;97590.44;;;7.82;100.00
36502;BME280;25393;46.108;3.390;2023-04-01T20:40:59;97594.25;;;7.96;100.00
36502;BME280;25393;46.108;3.390;2023-04-01T20:46:27;97588.66;;;7.91;100.00
36502;BME280;25393;46.108;3.390;2023-04-01T20:49:33;97609.28;;;8.12;100.00
36502;BME280;25393;46.108;3.390;2023-04-01T20:57:32;97607.28;;;7.97;100.00
36502;BME280;25393;46.108;3.390;2023-04-01T21:00:31;97611.75;;;8.05;100.00
36502;BME280;25393;46.108;3.390;2023-04-01T21:06:04;97621.28;;;7.90;100.00
36502;BME280;25393;46.108;3.390;2023-04-01T21:17:32;97626.91;;;7.87;100.00
36502;BME280;25393;46.108;3.390;2023-04-01T21:25:28;97628.56;;;7.88;100.00
36502;BME280;25393;46.108;3.390;2023-04-01T21:36:42;97625.47;;;8.09;100.00
36502;BME280;25393;46.108;3.390;2023-04-01T21:39:37;97635.53;;;8.05;100.00
36502;BME280;25393;46.108;3.390;2023-04-01T21:42:15;97635.97;;;7.92;100.00
36502;BME280;25393;46.108;3.390;2023-04-01T21:56:22;97635.25;;;7.66;100.00
36502;BME280;25393;46.108;3.390;2023-04-01T21:59:17;97648.44;;;7.74;100.00
36502;BME280;25393;46.108;3.390;2023-04-01T22:07:37;97653.25;;;7.79;100.00
36502;BME280;25393;46.108;3.390;2023-04-01T22:10:23;97646.97;;;7.72;100.00
36502;BME280;25393;46.108;3.390;2023-04-01T22:18:32;97650.19;;;7.91;100.00
36502;BME280;25393;46.108;3.390;2023-04-01T22:21:52;97648.53;;;7.98;100.00
36502;BME280;25393;46.108;3.390;2023-04-01T22:24:36;97650.34;;;7.98;100.00
36502;BME280;25393;46.108;3.390;2023-04-01T22:27:27;97660.41;;;8.02;100.00
36502;BME280;25393;46.108;3.390;2023-04-01T22:30:05;97663.88;;;7.95;100.00
36502;BME280;25393;46.108;3.390;2023-04-01T22:32:51;97659.56;;;7.94;100.00
36502;BME280;25393;46.108;3.390;2023-04-01T22:41:17;97659.69;;;7.76;100.00
36502;BME280;25393;46.108;3.390;2023-04-01T22:43:39;97660.00;;;7.73;100.00
36502;BME280;25393;46.108;3.390;2023-04-01T22:49:11;97648.78;;;7.63;100.00
36502;BME280;25393;46.108;3.390;2023-04-01T22:51:48;97650.06;;;7.59;100.00
36502;BME280;25393;46.108;3.390;2023-04-01T22:57:03;97652.66;;;7.51;100.00
36502;BME280;25393;46.108;3.390;2023-04-01T22:59:36;97676.22;;;7.44;100.00
36502;BME280;25393;46.108;3.390;2023-04-01T23:02:39;97655.16;;;7.52;100.00
36502;BME280;25393;46.108;3.390;2023-04-01T23:05:14;97666.22;;;7.56;100.00
36502;BME280;25393;46.108;3.390;2023-04-01T23:07:56;97666.69;;;7.51;100.00